sensor_id;sensor_type;location;lat;lon;timestamp;P1;durP1;ratioP1;P2;durP2;ratioP2
69305;SDS011;56427;51.580;4.656;2022-12-18T00:01:45;162.60;;;38.43;;
69305;SDS011;56427;51.580;4.656;2022-12-18T00:04:15;140.33;;;34.53;;
69305;SDS011;56427;51.580;4.656;2022-12-18T00:06:45;103.97;;;29.30;;
69305;SDS011;56427;51.580;4.656;2022-12-18T00:09:11;130.77;;;30.77;;
69305;SDS011;56427;51.580;4.656;2022-12-18T00:11:36;117.33;;;29.97;;
69305;SDS011;56427;51.580;4.656;2022-12-18T00:14:02;126.43;;;31.30;;
69305;SDS011;56427;51.580;4.656;2022-12-18T00:16:28;137.00;;;32.37;;
69305;SDS011;56427;51.580;4.656;2022-12-18T00:18:56;133.57;;;34.15;;
69305;SDS011;56427;51.580;4.656;2022-12-18T00:21:25;136.60;;;31.73;;
69305;SDS011;56427;51.580;4.656;2022-12-18T00:23:52;157.02;;;36.80;;
69305;SDS011;56427;51.580;4.656;2022-12-18T00:26:21;156.90;;;34.63;;
69305;SDS011;56427;51.580;4.656;2022-12-18T00:28:49;136.35;;;31.60;;
69305;SDS011;56427;51.580;4.656;2022-12-18T00:31:16;133.75;;;32.38;;
69305;SDS011;56427;51.580;4.656;2022-12-18T00:33:44;122.32;;;29.77;;
69305;SDS011;56427;51.580;4.656;2022-12-18T00:36:11;126.90;;;32.27;;
69305;SDS011;56427;51.580;4.656;2022-12-18T00:38:38;119.57;;;31.23;;
69305;SDS011;56427;51.580;4.656;2022-12-18T00:41:05;120.00;;;31.92;;
69305;SDS011;56427;51.580;4.656;2022-12-18T00:43:34;104.03;;;29.00;;
69305;SDS011;56427;51.580;4.656;2022-12-18T00:45:59;101.05;;;27.48;;
69305;SDS011;56427;51.580;4.656;2022-12-18T00:48:25;98.97;;;28.00;;
69305;SDS011;56427;51.580;4.656;2022-12-18T00:50:50;106.28;;;28.30;;
69305;SDS011;56427;51.580;4.656;2022-12-18T00:53:16;105.60;;;28.47;;
69305;SDS011;56427;51.580;4.656;2022-12-18T00:55:42;104.20;;;27.53;;
69305;SDS011;56427;51.580;4.656;2022-12-18T00:58:08;101.50;;;28.20;;
69305;SDS011;56427;51.580;4.656;2022-12-18T01:00:34;101.00;;;29.08;;
69305;SDS011;56427;51.580;4.656;2022-12-18T01:02:59;96.23;;;26.67;;
69305;SDS011;56427;51.580;4.656;2022-12-18T01:05:25;92.20;;;26.23;;
69305;SDS011;56427;51.580;4.656;2022-12-18T01:07:50;95.60;;;28.20;;
69305;SDS011;56427;51.580;4.656;2022-12-18T01:10:16;93.32;;;26.45;;
69305;SDS011;56427;51.580;4.656;2022-12-18T01:12:41;86.90;;;26.43;;
69305;SDS011;56427;51.580;4.656;2022-12-18T01:15:07;88.57;;;25.67;;
69305;SDS011;56427;51.580;4.656;2022-12-18T01:17:33;92.30;;;25.40;;
69305;SDS011;56427;51.580;4.656;2022-12-18T01:19:58;80.17;;;25.90;;
69305;SDS011;56427;51.580;4.656;2022-12-18T01:22:23;81.40;;;26.33;;
69305;SDS011;56427;51.580;4.656;2022-12-18T01:24:49;84.80;;;24.77;;
69305;SDS011;56427;51.580;4.656;2022-12-18T01:27:14;85.68;;;25.30;;
69305;SDS011;56427;51.580;4.656;2022-12-18T01:29:40;84.93;;;27.20;;
69305;SDS011;56427;51.580;4.656;2022-12-18T01:32:05;82.97;;;27.70;;
69305;SDS011;56427;51.580;4.656;2022-12-18T01:34:30;75.40;;;24.90;;
69305;SDS011;56427;51.580;4.656;2022-12-18T01:36:56;80.27;;;24.63;;
69305;SDS011;56427;51.580;4.656;2022-12-18T01:39:21;82.53;;;25.67;;
69305;SDS011;56427;51.580;4.656;2022-12-18T01:41:47;77.87;;;24.03;;
69305;SDS011;56427;51.580;4.656;2022-12-18T01:49:50;78.20;;;24.03;;
69305;SDS011;56427;51.580;4.656;2022-12-18T01:52:17;69.68;;;23.30;;
69305;SDS011;56427;51.580;4.656;2022-12-18T01:54:43;71.88;;;24.80;;
69305;SDS011;56427;51.580;4.656;2022-12-18T01:57:10;74.63;;;25.23;;
69305;SDS011;56427;51.580;4.656;2022-12-18T01:59:36;78.70;;;23.53;;
69305;SDS011;56427;51.580;4.656;2022-12-18T02:02:02;64.93;;;21.98;;
69305;SDS011;56427;51.580;4.656;2022-12-18T02:04:28;70.53;;;22.70;;
69305;SDS011;56427;51.580;4.656;2022-12-18T02:07:03;78.73;;;25.27;;
69305;SDS011;56427;51.580;4.656;2022-12-18T02:09:46;68.68;;;22.45;;
69305;SDS011;56427;51.580;4.656;2022-12-18T02:14:44;73.13;;;24.30;;
69305;SDS011;56427;51.580;4.656;2022-12-18T02:25:29;64.80;;;23.15;;
69305;SDS011;56427;51.580;4.656;2022-12-18T02:28:12;62.65;;;22.52;;
69305;SDS011;56427;51.580;4.656;2022-12-18T02:30:42;63.90;;;21.38;;
69305;SDS011;56427;51.580;4.656;2022-12-18T02:33:10;68.45;;;22.02;;
69305;SDS011;56427;51.580;4.656;2022-12-18T02:35:37;62.77;;;19.93;;
69305;SDS011;56427;51.580;4.656;2022-12-18T02:38:05;54.90;;;20.13;;
69305;SDS011;56427;51.580;4.656;2022-12-18T02:40:31;58.13;;;20.77;;
69305;SDS011;56427;51.580;4.656;2022-12-18T02:43:10;60.60;;;20.25;;
69305;SDS011;56427;51.580;4.656;2022-12-18T02:45:47;63.97;;;19.10;;
69305;SDS011;56427;51.580;4.656;2022-12-18T02:48:26;64.10;;;19.20;;
69305;SDS011;56427;51.580;4.656;2022-12-18T02:53:43;59.83;;;21.25;;
69305;SDS011;56427;51.580;4.656;2022-12-18T02:56:20;52.05;;;18.85;;
69305;SDS011;56427;51.580;4.656;2022-12-18T03:01:43;58.67;;;19.80;;
69305;SDS011;56427;51.580;4.656;2022-12-18T03:04:13;62.38;;;20.20;;
69305;SDS011;56427;51.580;4.656;2022-12-18T03:06:45;63.33;;;19.10;;
69305;SDS011;56427;51.580;4.656;2022-12-18T03:09:17;64.55;;;21.35;;
69305;SDS011;56427;51.580;4.656;2022-12-18T03:11:48;54.47;;;20.00;;
69305;SDS011;56427;51.580;4.656;2022-12-18T03:14:39;53.13;;;18.92;;
69305;SDS011;56427;51.580;4.656;2022-12-18T03:17:09;50.95;;;17.55;;
69305;SDS011;56427;51.580;4.656;2022-12-18T03:19:41;52.45;;;19.75;;
69305;SDS011;56427;51.580;4.656;2022-12-18T03:22:09;60.83;;;20.00;;
69305;SDS011;56427;51.580;4.656;2022-12-18T03:24:35;67.87;;;21.77;;
69305;SDS011;56427;51.580;4.656;2022-12-18T03:27:05;54.03;;;18.58;;
69305;SDS011;56427;51.580;4.656;2022-12-18T03:29:36;62.05;;;20.25;;
69305;SDS011;56427;51.580;4.656;2022-12-18T03:32:07;63.95;;;20.48;;
69305;SDS011;56427;51.580;4.656;2022-12-18T03:34:37;67.72;;;20.35;;
69305;SDS011;56427;51.580;4.656;2022-12-18T03:37:07;56.20;;;19.40;;
69305;SDS011;56427;51.580;4.656;2022-12-18T03:39:33;56.13;;;19.00;;
69305;SDS011;56427;51.580;4.656;2022-12-18T03:42:07;59.42;;;20.55;;
69305;SDS011;56427;51.580;4.656;2022-12-18T03:53:10;61.47;;;19.15;;
69305;SDS011;56427;51.580;4.656;2022-12-18T03:55:27;51.80;;;19.65;;
69305;SDS011;56427;51.580;4.656;2022-12-18T03:57:57;60.50;;;19.30;;
69305;SDS011;56427;51.580;4.656;2022-12-18T04:00:24;50.30;;;18.17;;
69305;SDS011;56427;51.580;4.656;2022-12-18T04:02:53;54.40;;;19.17;;
69305;SDS011;56427;51.580;4.656;2022-12-18T04:05:21;47.85;;;16.77;;
69305;SDS011;56427;51.580;4.656;2022-12-18T04:07:50;52.10;;;17.73;;
69305;SDS011;56427;51.580;4.656;2022-12-18T04:10:17;56.70;;;19.25;;
69305;SDS011;56427;51.580;4.656;2022-12-18T04:12:43;46.72;;;15.77;;
69305;SDS011;56427;51.580;4.656;2022-12-18T04:15:10;42.20;;;16.80;;
69305;SDS011;56427;51.580;4.656;2022-12-18T04:17:37;54.97;;;18.27;;
69305;SDS011;56427;51.580;4.656;2022-12-18T04:20:03;47.42;;;18.58;;
69305;SDS011;56427;51.580;4.656;2022-12-18T04:22:28;55.15;;;19.15;;
69305;SDS011;56427;51.580;4.656;2022-12-18T04:24:54;46.80;;;16.87;;
69305;SDS011;56427;51.580;4.656;2022-12-18T04:27:19;49.37;;;17.47;;
69305;SDS011;56427;51.580;4.656;2022-12-18T04:29:45;44.00;;;15.05;;
69305;SDS011;56427;51.580;4.656;2022-12-18T04:32:11;45.80;;;15.30;;
69305;SDS011;56427;51.580;4.656;2022-12-18T04:34:36;51.90;;;17.73;;
69305;SDS011;56427;51.580;4.656;2022-12-18T04:37:01;50.57;;;17.00;;
69305;SDS011;56427;51.580;4.656;2022-12-18T04:39:27;42.67;;;16.37;;
69305;SDS011;56427;51.580;4.656;2022-12-18T04:41:52;44.20;;;14.17;;
69305;SDS011;56427;51.580;4.656;2022-12-18T04:44:17;47.23;;;16.13;;
69305;SDS011;56427;51.580;4.656;2022-12-18T04:46:43;40.63;;;15.10;;
69305;SDS011;56427;51.580;4.656;2022-12-18T04:49:09;50.42;;;16.67;;
69305;SDS011;56427;51.580;4.656;2022-12-18T04:51:35;43.43;;;15.87;;
69305;SDS011;56427;51.580;4.656;2022-12-18T04:54:01;47.58;;;17.33;;
69305;SDS011;56427;51.580;4.656;2022-12-18T04:56:26;43.77;;;16.47;;
69305;SDS011;56427;51.580;4.656;2022-12-18T04:58:52;44.47;;;16.87;;
69305;SDS011;56427;51.580;4.656;2022-12-18T05:01:17;44.33;;;17.83;;
69305;SDS011;56427;51.580;4.656;2022-12-18T05:03:43;44.83;;;16.23;;
69305;SDS011;56427;51.580;4.656;2022-12-18T05:06:09;42.13;;;15.60;;
69305;SDS011;56427;51.580;4.656;2022-12-18T05:08:34;44.35;;;16.67;;
69305;SDS011;56427;51.580;4.656;2022-12-18T05:11:07;40.40;;;14.10;;
69305;SDS011;56427;51.580;4.656;2022-12-18T05:13:34;39.08;;;15.20;;
69305;SDS011;56427;51.580;4.656;2022-12-18T05:16:00;47.88;;;17.25;;
69305;SDS011;56427;51.580;4.656;2022-12-18T05:18:26;42.85;;;17.40;;
69305;SDS011;56427;51.580;4.656;2022-12-18T05:20:52;45.60;;;17.02;;
69305;SDS011;56427;51.580;4.656;2022-12-18T05:23:18;36.63;;;15.40;;
69305;SDS011;56427;51.580;4.656;2022-12-18T05:25:55;43.22;;;15.52;;
69305;SDS011;56427;51.580;4.656;2022-12-18T05:28:22;45.58;;;16.42;;
69305;SDS011;56427;51.580;4.656;2022-12-18T05:30:49;43.42;;;16.25;;
69305;SDS011;56427;51.580;4.656;2022-12-18T05:33:16;38.33;;;14.75;;
69305;SDS011;56427;51.580;4.656;2022-12-18T05:35:42;40.67;;;15.60;;
69305;SDS011;56427;51.580;4.656;2022-12-18T05:38:09;34.58;;;14.40;;
69305;SDS011;56427;51.580;4.656;2022-12-18T05:40:35;41.28;;;14.60;;
69305;SDS011;56427;51.580;4.656;2022-12-18T05:43:02;38.28;;;15.55;;
69305;SDS011;56427;51.580;4.656;2022-12-18T05:45:27;43.37;;;15.37;;
69305;SDS011;56427;51.580;4.656;2022-12-18T05:47:52;38.27;;;15.53;;
69305;SDS011;56427;51.580;4.656;2022-12-18T05:50:18;38.67;;;14.63;;
69305;SDS011;56427;51.580;4.656;2022-12-18T05:52:43;36.00;;;13.83;;
69305;SDS011;56427;51.580;4.656;2022-12-18T05:55:08;39.78;;;14.60;;
69305;SDS011;56427;51.580;4.656;2022-12-18T05:57:34;46.60;;;17.48;;
69305;SDS011;56427;51.580;4.656;2022-12-18T05:59:59;39.30;;;14.40;;
69305;SDS011;56427;51.580;4.656;2022-12-18T06:02:24;31.43;;;13.63;;
69305;SDS011;56427;51.580;4.656;2022-12-18T06:04:50;36.43;;;14.70;;
69305;SDS011;56427;51.580;4.656;2022-12-18T06:07:15;36.57;;;15.70;;
69305;SDS011;56427;51.580;4.656;2022-12-18T06:09:40;33.20;;;14.27;;
69305;SDS011;56427;51.580;4.656;2022-12-18T06:12:06;38.83;;;15.47;;
69305;SDS011;56427;51.580;4.656;2022-12-18T06:14:31;29.17;;;12.77;;
69305;SDS011;56427;51.580;4.656;2022-12-18T06:16:56;28.03;;;12.27;;
69305;SDS011;56427;51.580;4.656;2022-12-18T06:19:22;25.75;;;11.63;;
69305;SDS011;56427;51.580;4.656;2022-12-18T06:21:47;30.98;;;13.20;;
69305;SDS011;56427;51.580;4.656;2022-12-18T06:24:14;33.40;;;14.40;;
69305;SDS011;56427;51.580;4.656;2022-12-18T06:26:39;37.95;;;14.52;;
69305;SDS011;56427;51.580;4.656;2022-12-18T06:29:05;34.72;;;14.40;;
69305;SDS011;56427;51.580;4.656;2022-12-18T06:31:31;35.53;;;14.18;;
69305;SDS011;56427;51.580;4.656;2022-12-18T06:33:56;34.67;;;14.43;;
69305;SDS011;56427;51.580;4.656;2022-12-18T06:36:22;30.17;;;12.77;;
69305;SDS011;56427;51.580;4.656;2022-12-18T06:38:47;36.00;;;14.43;;
69305;SDS011;56427;51.580;4.656;2022-12-18T06:41:16;38.73;;;16.47;;
69305;SDS011;56427;51.580;4.656;2022-12-18T06:43:45;37.63;;;15.30;;
69305;SDS011;56427;51.580;4.656;2022-12-18T06:46:11;34.30;;;13.55;;
69305;SDS011;56427;51.580;4.656;2022-12-18T06:48:37;32.03;;;12.63;;
69305;SDS011;56427;51.580;4.656;2022-12-18T06:51:03;29.27;;;11.35;;
69305;SDS011;56427;51.580;4.656;2022-12-18T06:53:28;36.40;;;13.67;;
69305;SDS011;56427;51.580;4.656;2022-12-18T06:56:05;38.00;;;14.25;;
69305;SDS011;56427;51.580;4.656;2022-12-18T06:58:32;30.93;;;14.20;;
69305;SDS011;56427;51.580;4.656;2022-12-18T07:01:01;34.65;;;14.57;;
69305;SDS011;56427;51.580;4.656;2022-12-18T07:03:28;41.90;;;14.73;;
69305;SDS011;56427;51.580;4.656;2022-12-18T07:05:54;30.53;;;13.63;;
69305;SDS011;56427;51.580;4.656;2022-12-18T07:08:19;36.33;;;14.65;;
69305;SDS011;56427;51.580;4.656;2022-12-18T07:10:45;33.60;;;13.93;;
69305;SDS011;56427;51.580;4.656;2022-12-18T07:13:10;28.97;;;12.77;;
69305;SDS011;56427;51.580;4.656;2022-12-18T07:15:36;32.37;;;14.03;;
69305;SDS011;56427;51.580;4.656;2022-12-18T07:18:01;28.50;;;13.18;;
69305;SDS011;56427;51.580;4.656;2022-12-18T07:20:26;29.87;;;13.53;;
69305;SDS011;56427;51.580;4.656;2022-12-18T07:22:53;32.60;;;13.67;;
69305;SDS011;56427;51.580;4.656;2022-12-18T07:25:18;33.33;;;12.95;;
69305;SDS011;56427;51.580;4.656;2022-12-18T07:27:44;30.20;;;12.83;;
69305;SDS011;56427;51.580;4.656;2022-12-18T07:30:09;30.87;;;13.40;;
69305;SDS011;56427;51.580;4.656;2022-12-18T07:32:35;33.97;;;14.40;;
69305;SDS011;56427;51.580;4.656;2022-12-18T07:35:00;37.80;;;15.13;;
69305;SDS011;56427;51.580;4.656;2022-12-18T07:37:26;26.80;;;12.37;;
69305;SDS011;56427;51.580;4.656;2022-12-18T07:39:51;29.07;;;14.03;;
69305;SDS011;56427;51.580;4.656;2022-12-18T07:42:17;31.63;;;13.90;;
69305;SDS011;56427;51.580;4.656;2022-12-18T07:44:58;28.92;;;13.63;;
69305;SDS011;56427;51.580;4.656;2022-12-18T07:47:25;31.77;;;14.03;;
69305;SDS011;56427;51.580;4.656;2022-12-18T07:49:50;28.90;;;12.07;;
69305;SDS011;56427;51.580;4.656;2022-12-18T07:52:15;27.03;;;12.50;;
69305;SDS011;56427;51.580;4.656;2022-12-18T07:54:41;32.73;;;13.37;;
69305;SDS011;56427;51.580;4.656;2022-12-18T07:57:06;27.27;;;11.93;;
69305;SDS011;56427;51.580;4.656;2022-12-18T07:59:32;28.48;;;13.95;;
69305;SDS011;56427;51.580;4.656;2022-12-18T08:01:58;29.33;;;12.90;;
69305;SDS011;56427;51.580;4.656;2022-12-18T08:04:23;28.63;;;12.80;;
69305;SDS011;56427;51.580;4.656;2022-12-18T08:06:49;31.73;;;12.95;;
69305;SDS011;56427;51.580;4.656;2022-12-18T08:09:15;31.90;;;14.30;;
69305;SDS011;56427;51.580;4.656;2022-12-18T08:11:40;30.07;;;12.80;;
69305;SDS011;56427;51.580;4.656;2022-12-18T08:14:06;32.37;;;14.73;;
69305;SDS011;56427;51.580;4.656;2022-12-18T08:16:31;28.73;;;13.37;;
69305;SDS011;56427;51.580;4.656;2022-12-18T08:18:56;26.33;;;11.25;;
69305;SDS011;56427;51.580;4.656;2022-12-18T08:21:26;27.40;;;12.60;;
69305;SDS011;56427;51.580;4.656;2022-12-18T08:23:53;31.27;;;13.50;;
69305;SDS011;56427;51.580;4.656;2022-12-18T08:26:20;33.83;;;14.95;;
69305;SDS011;56427;51.580;4.656;2022-12-18T08:28:46;24.30;;;11.88;;
69305;SDS011;56427;51.580;4.656;2022-12-18T08:31:12;27.92;;;13.30;;
69305;SDS011;56427;51.580;4.656;2022-12-18T08:33:38;29.70;;;14.35;;
69305;SDS011;56427;51.580;4.656;2022-12-18T08:36:05;30.27;;;14.18;;
69305;SDS011;56427;51.580;4.656;2022-12-18T08:38:31;27.48;;;14.05;;
69305;SDS011;56427;51.580;4.656;2022-12-18T08:41:03;28.67;;;12.93;;
69305;SDS011;56427;51.580;4.656;2022-12-18T08:43:31;30.92;;;13.30;;
69305;SDS011;56427;51.580;4.656;2022-12-18T08:46:15;28.55;;;13.38;;
69305;SDS011;56427;51.580;4.656;2022-12-18T08:48:41;28.90;;;13.00;;
69305;SDS011;56427;51.580;4.656;2022-12-18T08:51:06;21.87;;;10.70;;
69305;SDS011;56427;51.580;4.656;2022-12-18T08:53:31;29.20;;;13.50;;
69305;SDS011;56427;51.580;4.656;2022-12-18T08:55:57;25.57;;;13.00;;
69305;SDS011;56427;51.580;4.656;2022-12-18T08:58:22;27.27;;;13.03;;
69305;SDS011;56427;51.580;4.656;2022-12-18T09:00:48;26.63;;;12.40;;
69305;SDS011;56427;51.580;4.656;2022-12-18T09:03:17;30.23;;;12.33;;
69305;SDS011;56427;51.580;4.656;2022-12-18T09:05:45;26.77;;;12.30;;
69305;SDS011;56427;51.580;4.656;2022-12-18T09:08:11;22.23;;;11.48;;
69305;SDS011;56427;51.580;4.656;2022-12-18T09:10:45;25.30;;;12.77;;
69305;SDS011;56427;51.580;4.656;2022-12-18T09:13:11;27.38;;;13.18;;
69305;SDS011;56427;51.580;4.656;2022-12-18T09:15:41;29.33;;;13.07;;
69305;SDS011;56427;51.580;4.656;2022-12-18T09:18:07;26.30;;;12.50;;
69305;SDS011;56427;51.580;4.656;2022-12-18T09:20:34;27.38;;;13.50;;
69305;SDS011;56427;51.580;4.656;2022-12-18T09:23:00;26.15;;;12.45;;
69305;SDS011;56427;51.580;4.656;2022-12-18T09:25:26;21.73;;;9.93;;
69305;SDS011;56427;51.580;4.656;2022-12-18T09:27:56;24.63;;;12.02;;
69305;SDS011;56427;51.580;4.656;2022-12-18T09:30:22;26.10;;;12.60;;
69305;SDS011;56427;51.580;4.656;2022-12-18T09:32:47;26.20;;;11.87;;
69305;SDS011;56427;51.580;4.656;2022-12-18T09:35:12;28.52;;;13.23;;
69305;SDS011;56427;51.580;4.656;2022-12-18T09:37:38;20.02;;;10.10;;
69305;SDS011;56427;51.580;4.656;2022-12-18T09:40:12;27.60;;;11.87;;
69305;SDS011;56427;51.580;4.656;2022-12-18T09:42:39;22.30;;;11.32;;
69305;SDS011;56427;51.580;4.656;2022-12-18T09:45:07;20.13;;;10.98;;
69305;SDS011;56427;51.580;4.656;2022-12-18T09:47:38;23.90;;;10.68;;
69305;SDS011;56427;51.580;4.656;2022-12-18T09:50:12;23.10;;;10.70;;
69305;SDS011;56427;51.580;4.656;2022-12-18T09:52:58;23.10;;;11.68;;
69305;SDS011;56427;51.580;4.656;2022-12-18T09:55:39;26.30;;;12.27;;
69305;SDS011;56427;51.580;4.656;2022-12-18T09:58:17;20.55;;;10.55;;
69305;SDS011;56427;51.580;4.656;2022-12-18T10:00:48;26.13;;;11.90;;
69305;SDS011;56427;51.580;4.656;2022-12-18T10:03:17;16.83;;;8.97;;
69305;SDS011;56427;51.580;4.656;2022-12-18T10:06:02;25.10;;;12.10;;
69305;SDS011;56427;51.580;4.656;2022-12-18T10:11:22;24.63;;;11.95;;
69305;SDS011;56427;51.580;4.656;2022-12-18T10:22:50;28.10;;;13.65;;
69305;SDS011;56427;51.580;4.656;2022-12-18T10:25:50;24.05;;;11.65;;
69305;SDS011;56427;51.580;4.656;2022-12-18T10:28:20;27.25;;;11.38;;
69305;SDS011;56427;51.580;4.656;2022-12-18T10:30:48;26.27;;;12.48;;
69305;SDS011;56427;51.580;4.656;2022-12-18T10:33:16;25.10;;;13.10;;
69305;SDS011;56427;51.580;4.656;2022-12-18T10:35:44;25.02;;;12.50;;
69305;SDS011;56427;51.580;4.656;2022-12-18T10:40:58;24.63;;;12.73;;
69305;SDS011;56427;51.580;4.656;2022-12-18T10:48:30;25.92;;;12.88;;
69305;SDS011;56427;51.580;4.656;2022-12-18T10:50:58;26.02;;;11.38;;
69305;SDS011;56427;51.580;4.656;2022-12-18T10:53:25;23.67;;;12.43;;
69305;SDS011;56427;51.580;4.656;2022-12-18T10:55:53;24.20;;;12.13;;
69305;SDS011;56427;51.580;4.656;2022-12-18T10:58:22;24.15;;;12.27;;
69305;SDS011;56427;51.580;4.656;2022-12-18T11:03:37;22.08;;;11.60;;
69305;SDS011;56427;51.580;4.656;2022-12-18T11:06:23;23.52;;;12.05;;
69305;SDS011;56427;51.580;4.656;2022-12-18T11:09:06;26.73;;;13.37;;
69305;SDS011;56427;51.580;4.656;2022-12-18T11:11:54;27.27;;;13.07;;
69305;SDS011;56427;51.580;4.656;2022-12-18T11:16:58;25.33;;;12.43;;
69305;SDS011;56427;51.580;4.656;2022-12-18T11:19:28;19.67;;;11.18;;
69305;SDS011;56427;51.580;4.656;2022-12-18T11:21:58;24.50;;;13.20;;
69305;SDS011;56427;51.580;4.656;2022-12-18T11:24:34;24.13;;;12.63;;
69305;SDS011;56427;51.580;4.656;2022-12-18T11:27:02;24.50;;;12.25;;
69305;SDS011;56427;51.580;4.656;2022-12-18T11:29:33;24.65;;;12.82;;
69305;SDS011;56427;51.580;4.656;2022-12-18T11:32:19;26.33;;;12.85;;
69305;SDS011;56427;51.580;4.656;2022-12-18T11:37:37;27.05;;;14.13;;
69305;SDS011;56427;51.580;4.656;2022-12-18T11:40:12;27.17;;;12.50;;
69305;SDS011;56427;51.580;4.656;2022-12-18T11:42:43;24.83;;;12.82;;
69305;SDS011;56427;51.580;4.656;2022-12-18T11:47:49;24.03;;;12.80;;
69305;SDS011;56427;51.580;4.656;2022-12-18T11:50:24;27.20;;;12.80;;
69305;SDS011;56427;51.580;4.656;2022-12-18T11:53:11;25.33;;;12.80;;
69305;SDS011;56427;51.580;4.656;2022-12-18T11:55:39;30.50;;;14.00;;
69305;SDS011;56427;51.580;4.656;2022-12-18T12:07:11;24.27;;;12.43;;
69305;SDS011;56427;51.580;4.656;2022-12-18T12:17:50;26.52;;;13.18;;
69305;SDS011;56427;51.580;4.656;2022-12-18T12:23:00;23.50;;;12.10;;
69305;SDS011;56427;51.580;4.656;2022-12-18T12:25:42;22.95;;;12.77;;
69305;SDS011;56427;51.580;4.656;2022-12-18T12:30:52;25.48;;;12.95;;
69305;SDS011;56427;51.580;4.656;2022-12-18T12:33:43;25.05;;;12.95;;
69305;SDS011;56427;51.580;4.656;2022-12-18T12:39:27;19.92;;;11.25;;
69305;SDS011;56427;51.580;4.656;2022-12-18T12:41:57;26.93;;;13.97;;
69305;SDS011;56427;51.580;4.656;2022-12-18T12:44:43;24.38;;;12.90;;
69305;SDS011;56427;51.580;4.656;2022-12-18T12:47:23;26.52;;;13.85;;
69305;SDS011;56427;51.580;4.656;2022-12-18T12:49:53;20.50;;;10.70;;
69305;SDS011;56427;51.580;4.656;2022-12-18T12:52:35;28.63;;;13.52;;
69305;SDS011;56427;51.580;4.656;2022-12-18T12:55:07;22.13;;;12.47;;
69305;SDS011;56427;51.580;4.656;2022-12-18T12:57:42;27.08;;;12.35;;
69305;SDS011;56427;51.580;4.656;2022-12-18T13:00:16;22.27;;;11.90;;
69305;SDS011;56427;51.580;4.656;2022-12-18T13:05:14;25.47;;;12.60;;
69305;SDS011;56427;51.580;4.656;2022-12-18T13:08:03;24.13;;;12.77;;
69305;SDS011;56427;51.580;4.656;2022-12-18T13:13:06;26.50;;;13.32;;
69305;SDS011;56427;51.580;4.656;2022-12-18T13:20:41;29.75;;;14.43;;
69305;SDS011;56427;51.580;4.656;2022-12-18T13:25:48;25.95;;;13.10;;
69305;SDS011;56427;51.580;4.656;2022-12-18T13:28:14;26.77;;;13.77;;
69305;SDS011;56427;51.580;4.656;2022-12-18T13:35:52;25.93;;;14.07;;
69305;SDS011;56427;51.580;4.656;2022-12-18T13:40:57;27.55;;;14.15;;
69305;SDS011;56427;51.580;4.656;2022-12-18T13:46:19;24.60;;;11.90;;
69305;SDS011;56427;51.580;4.656;2022-12-18T13:48:57;30.20;;;14.03;;
69305;SDS011;56427;51.580;4.656;2022-12-18T13:51:26;26.75;;;14.63;;
69305;SDS011;56427;51.580;4.656;2022-12-18T13:53:54;30.23;;;14.80;;
69305;SDS011;56427;51.580;4.656;2022-12-18T13:56:27;25.00;;;12.48;;
69305;SDS011;56427;51.580;4.656;2022-12-18T14:01:47;30.17;;;14.77;;
69305;SDS011;56427;51.580;4.656;2022-12-18T14:04:19;29.27;;;14.82;;
69305;SDS011;56427;51.580;4.656;2022-12-18T14:06:49;30.05;;;15.43;;
69305;SDS011;56427;51.580;4.656;2022-12-18T14:09:20;29.10;;;13.88;;
69305;SDS011;56427;51.580;4.656;2022-12-18T14:11:51;26.77;;;12.27;;
69305;SDS011;56427;51.580;4.656;2022-12-18T14:14:38;29.53;;;15.00;;
69305;SDS011;56427;51.580;4.656;2022-12-18T14:17:08;26.00;;;14.07;;
69305;SDS011;56427;51.580;4.656;2022-12-18T14:19:35;25.65;;;12.88;;
69305;SDS011;56427;51.580;4.656;2022-12-18T14:22:00;28.77;;;14.40;;
69305;SDS011;56427;51.580;4.656;2022-12-18T14:24:26;26.53;;;13.23;;
69305;SDS011;56427;51.580;4.656;2022-12-18T14:26:52;29.92;;;15.77;;
69305;SDS011;56427;51.580;4.656;2022-12-18T14:29:20;27.58;;;14.35;;
69305;SDS011;56427;51.580;4.656;2022-12-18T14:34:32;25.60;;;12.98;;
69305;SDS011;56427;51.580;4.656;2022-12-18T14:36:58;31.27;;;13.83;;
69305;SDS011;56427;51.580;4.656;2022-12-18T14:39:23;25.50;;;13.33;;
69305;SDS011;56427;51.580;4.656;2022-12-18T14:41:50;27.27;;;13.90;;
69305;SDS011;56427;51.580;4.656;2022-12-18T14:44:16;31.30;;;15.15;;
69305;SDS011;56427;51.580;4.656;2022-12-18T14:46:42;25.90;;;15.23;;
69305;SDS011;56427;51.580;4.656;2022-12-18T14:51:47;33.07;;;15.40;;
69305;SDS011;56427;51.580;4.656;2022-12-18T14:54:15;28.75;;;14.50;;
69305;SDS011;56427;51.580;4.656;2022-12-18T14:56:44;27.67;;;14.32;;
69305;SDS011;56427;51.580;4.656;2022-12-18T14:59:16;29.60;;;15.07;;
69305;SDS011;56427;51.580;4.656;2022-12-18T15:01:45;24.45;;;12.80;;
69305;SDS011;56427;51.580;4.656;2022-12-18T15:07:15;30.35;;;15.07;;
69305;SDS011;56427;51.580;4.656;2022-12-18T15:09:44;29.52;;;14.27;;
69305;SDS011;56427;51.580;4.656;2022-12-18T15:12:32;26.80;;;13.70;;
69305;SDS011;56427;51.580;4.656;2022-12-18T15:14:58;32.78;;;15.27;;
69305;SDS011;56427;51.580;4.656;2022-12-18T15:17:24;30.70;;;15.33;;
69305;SDS011;56427;51.580;4.656;2022-12-18T15:19:50;29.23;;;15.37;;
69305;SDS011;56427;51.580;4.656;2022-12-18T15:22:20;30.23;;;15.30;;
69305;SDS011;56427;51.580;4.656;2022-12-18T15:24:47;30.83;;;16.02;;
69305;SDS011;56427;51.580;4.656;2022-12-18T15:27:33;29.37;;;14.90;;
69305;SDS011;56427;51.580;4.656;2022-12-18T15:32:39;27.35;;;14.15;;
69305;SDS011;56427;51.580;4.656;2022-12-18T15:37:35;30.52;;;16.10;;
69305;SDS011;56427;51.580;4.656;2022-12-18T15:40:04;27.30;;;13.50;;
69305;SDS011;56427;51.580;4.656;2022-12-18T15:42:30;32.83;;;16.95;;
69305;SDS011;56427;51.580;4.656;2022-12-18T15:45:14;29.63;;;15.95;;
69305;SDS011;56427;51.580;4.656;2022-12-18T15:47:39;31.27;;;16.27;;
69305;SDS011;56427;51.580;4.656;2022-12-18T15:50:07;38.10;;;17.08;;
69305;SDS011;56427;51.580;4.656;2022-12-18T15:52:34;31.92;;;16.02;;
69305;SDS011;56427;51.580;4.656;2022-12-18T15:55:12;31.27;;;15.88;;
69305;SDS011;56427;51.580;4.656;2022-12-18T15:57:58;30.07;;;16.70;;
69305;SDS011;56427;51.580;4.656;2022-12-18T16:00:23;30.02;;;17.15;;
69305;SDS011;56427;51.580;4.656;2022-12-18T16:02:49;29.93;;;16.57;;
69305;SDS011;56427;51.580;4.656;2022-12-18T16:05:15;33.27;;;16.83;;
69305;SDS011;56427;51.580;4.656;2022-12-18T16:07:42;31.33;;;16.45;;
69305;SDS011;56427;51.580;4.656;2022-12-18T16:10:09;38.88;;;18.38;;
69305;SDS011;56427;51.580;4.656;2022-12-18T16:12:34;35.03;;;17.40;;
69305;SDS011;56427;51.580;4.656;2022-12-18T16:15:01;35.72;;;17.73;;
69305;SDS011;56427;51.580;4.656;2022-12-18T16:17:27;35.45;;;18.08;;
69305;SDS011;56427;51.580;4.656;2022-12-18T16:19:52;34.87;;;16.63;;
69305;SDS011;56427;51.580;4.656;2022-12-18T16:22:25;39.80;;;18.97;;
69305;SDS011;56427;51.580;4.656;2022-12-18T16:24:52;32.33;;;17.58;;
69305;SDS011;56427;51.580;4.656;2022-12-18T16:27:19;32.72;;;17.13;;
69305;SDS011;56427;51.580;4.656;2022-12-18T16:29:45;34.88;;;17.27;;
69305;SDS011;56427;51.580;4.656;2022-12-18T16:32:15;32.58;;;17.55;;
69305;SDS011;56427;51.580;4.656;2022-12-18T16:34:42;36.15;;;17.00;;
69305;SDS011;56427;51.580;4.656;2022-12-18T16:37:08;28.55;;;15.15;;